Time;durP1;ratioP1;P1;durP2;ratioP2;P2;SDS_P1;SDS_P2;PMS_P1;PMS_P2;Temp;Humidity;BMP_temperature;BMP_pressure;BME280_temperature;BME280_humidity;BME280_pressure;Samples;Min_cycle;Max_cycle;Signal;HPM_P1;HPM_P2
2023/07/15 00:00:19;;;;;;;5.25;4.45;;;23.90;99.90;;;;;;5134141;27;20119;-57
2023/07/15 00:02:45;;;;;;;6.45;4.65;;;24.00;99.90;;;;;;5134216;27;20030;-57
2023/07/15 00:05:35;;;;;;;4.95;3.78;;;23.90;99.90;;;;;;5134471;27;20079;-57
2023/07/15 00:08:05;;;;;;;6.85;4.40;;;24.00;99.90;;;;;;5134278;27;20485;-55
2023/07/15 00:10:33;;;;;;;6.82;4.10;;;;;;;;;;5133959;27;20367;-56
2023/07/15 00:12:59;;;;;;;6.07;3.70;;;;;;;;;;5134035;27;20106;-56
2023/07/15 00:15:25;;;;;;;5.55;3.90;;;23.50;99.90;;;;;;5134533;27;20208;-55
2023/07/15 00:17:51;;;;;;;5.53;3.97;;;23.40;99.90;;;;;;5134179;27;20034;-54
2023/07/15 00:20:19;;;;;;;7.15;3.95;;;23.20;99.90;;;;;;5134030;27;20497;-56
2023/07/15 00:22:45;;;;;;;5.82;4.00;;;23.40;99.90;;;;;;5115407;28;20040;-55
2023/07/15 00:25:17;;;;;;;6.07;4.43;;;23.50;99.90;;;;;;5134096;27;20031;-55
2023/07/15 00:27:44;;;;;;;7.55;4.25;;;23.30;99.90;;;;;;5134311;27;20027;-55
2023/07/15 00:30:13;;;;;;;5.90;4.10;;;23.00;99.90;;;;;;5134378;27;20110;-54
2023/07/15 00:32:40;;;;;;;6.90;4.22;;;;;;;;;;5115514;28;20039;-56
2023/07/15 00:35:28;;;;;;;6.10;4.00;;;22.70;99.90;;;;;;5134025;28;20432;-57
2023/07/15 00:37:59;;;;;;;5.15;4.00;;;23.00;99.90;;;;;;5132733;28;20031;-54
2023/07/15 00:40:27;;;;;;;7.38;3.72;;;23.10;99.90;;;;;;5133880;27;20034;-55
2023/07/15 00:43:30;;;;;;;4.82;3.83;;;23.10;99.90;;;;;;5133980;27;20097;-54
2023/07/15 00:46:26;;;;;;;7.20;4.15;;;23.30;99.90;;;;;;5134345;27;20048;-55
2023/07/15 00:49:09;;;;;;;7.70;4.38;;;23.50;99.90;;;;;;5138115;27;20486;-57
2023/07/15 00:51:39;;;;;;;5.97;4.10;;;23.60;99.90;;;;;;5137940;27;20485;-57
2023/07/15 00:54:05;;;;;;;6.43;4.10;;;23.70;99.90;;;;;;5137822;27;20054;-56
2023/07/15 00:56:34;;;;;;;5.07;4.00;;;23.60;99.90;;;;;;5138161;27;20084;-55
2023/07/15 00:59:01;;;;;;;7.43;3.80;;;23.40;99.90;;;;;;5137875;27;20068;-55
2023/07/15 01:01:27;;;;;;;5.53;3.83;;;23.10;99.90;;;;;;5137833;27;20027;-56
2023/07/15 01:03:54;;;;;;;5.53;4.10;;;23.00;99.90;;;;;;5138164;27;20565;-54
2023/07/15 01:06:21;;;;;;;5.78;3.88;;;23.00;99.90;;;;;;5137738;27;20065;-55
2023/07/15 01:08:46;;;;;;;5.60;3.88;;;23.10;99.90;;;;;;5137663;27;20088;-57
2023/07/15 01:11:12;;;;;;;4.55;3.47;;;23.10;99.90;;;;;;5118501;27;20364;-57
2023/07/15 01:13:39;;;;;;;5.90;3.80;;;23.00;99.90;;;;;;5137733;27;20027;-56
2023/07/15 01:16:05;;;;;;;6.00;3.80;;;23.20;99.90;;;;;;5137536;27;20034;-56
2023/07/15 01:18:31;;;;;;;7.68;4.97;;;23.20;99.90;;;;;;5137291;27;20023;-56
2023/07/15 01:20:59;;;;;;;8.15;3.95;;;23.30;99.90;;;;;;5137377;27;20424;-56
2023/07/15 01:23:26;;;;;;;7.88;4.60;;;23.20;99.90;;;;;;5137391;27;20034;-55
2023/07/15 01:25:52;;;;;;;8.68;4.43;;;23.10;99.90;;;;;;5118365;27;20108;-55
2023/07/15 01:28:17;;;;;;;5.22;3.72;;;23.00;99.90;;;;;;5137316;27;20039;-55
2023/07/15 01:30:43;;;;;;;5.53;4.30;;;22.90;99.90;;;;;;5137284;27;20061;-57
2023/07/15 01:33:10;;;;;;;6.63;3.92;;;;;;;;;;5137147;27;20524;-57
2023/07/15 01:35:36;;;;;;;5.20;4.28;;;22.50;99.90;;;;;;5118188;27;20053;-56
2023/07/15 01:38:03;;;;;;;8.73;4.13;;;22.40;99.90;;;;;;5135934;27;20035;-56
2023/07/15 01:40:29;;;;;;;8.85;4.20;;;22.50;99.90;;;;;;5136660;27;20031;-57
2023/07/15 01:42:55;;;;;;;7.05;4.18;;;22.30;99.90;;;;;;5117894;27;20091;-56
2023/07/15 01:45:20;;;;;;;4.75;3.85;;;22.60;99.90;;;;;;5136935;27;20038;-55
2023/07/15 01:47:46;;;;;;;7.00;4.93;;;22.50;99.90;;;;;;5136878;27;20110;-56
2023/07/15 01:50:12;;;;;;;7.40;4.20;;;22.40;99.90;;;;;;5117729;27;20394;-55
2023/07/15 01:52:37;;;;;;;6.43;4.10;;;22.30;99.90;;;;;;5137208;27;20062;-56
2023/07/15 01:55:03;;;;;;;5.72;4.13;;;22.50;99.90;;;;;;5136659;27;20104;-56
2023/07/15 01:57:30;;;;;;;5.55;3.95;;;22.60;99.90;;;;;;5136343;27;20080;-55
2023/07/15 01:59:59;;;;;;;5.88;4.03;;;22.60;99.90;;;;;;5135499;27;20391;-56
2023/07/15 02:02:25;;;;;;;7.80;4.53;;;22.30;99.90;;;;;;5136774;27;20035;-57
2023/07/15 02:04:51;;;;;;;5.50;4.20;;;;;;;;;;5136489;27;20046;-54
2023/07/15 02:07:17;;;;;;;5.75;4.55;;;21.90;99.90;;;;;;5117315;27;20043;-56
2023/07/15 02:09:43;;;;;;;8.15;4.55;;;21.80;99.90;;;;;;5117496;27;20088;-56
2023/07/15 02:12:10;;;;;;;7.53;4.40;;;22.00;99.90;;;;;;5136491;27;20102;-56
2023/07/15 02:14:38;;;;;;;6.43;4.18;;;22.20;99.90;;;;;;5136430;27;20027;-56
2023/07/15 02:17:05;;;;;;;6.20;4.85;;;22.30;99.90;;;;;;5136373;27;20035;-55
2023/07/15 02:19:31;;;;;;;5.20;4.47;;;22.20;99.90;;;;;;5136521;27;20031;-57
2023/07/15 02:21:57;;;;;;;7.15;4.78;;;22.20;99.90;;;;;;5136204;27;20087;-56
2023/07/15 02:24:23;;;;;;;7.15;4.97;;;22.30;99.90;;;;;;5136391;27;20034;-57
2023/07/15 02:26:49;;;;;;;10.20;5.43;;;22.40;99.90;;;;;;5136182;27;20399;-55
2023/07/15 02:29:15;;;;;;;5.60;4.47;;;22.40;99.90;;;;;;5136048;27;20030;-54
2023/07/15 02:31:41;;;;;;;5.68;4.70;;;22.50;99.90;;;;;;5136241;27;20031;-54
2023/07/15 02:34:10;;;;;;;8.68;4.75;;;22.30;99.90;;;;;;5117200;27;20039;-56
2023/07/15 02:36:36;;;;;;;6.95;4.95;;;22.20;99.90;;;;;;5135939;27;20062;-56
2023/07/15 02:39:04;;;;;;;8.18;4.97;;;22.10;99.90;;;;;;5135880;27;20022;-55
2023/07/15 02:41:32;;;;;;;7.07;5.18;;;22.30;99.90;;;;;;5136147;27;20031;-57
2023/07/15 02:43:58;;;;;;;6.00;4.50;;;22.40;99.90;;;;;;5135711;27;20390;-55
2023/07/15 02:46:24;;;;;;;9.48;5.28;;;22.50;99.90;;;;;;5135566;27;20359;-55
2023/07/15 02:48:50;;;;;;;8.48;5.40;;;22.50;99.90;;;;;;5136088;27;20015;-56
2023/07/15 02:51:15;;;;;;;6.28;4.28;;;22.50;99.90;;;;;;5135456;27;20426;-55
2023/07/15 02:53:43;;;;;;;5.60;4.40;;;22.40;99.90;;;;;;5116513;27;20077;-56
2023/07/15 02:56:09;;;;;;;6.15;4.35;;;22.40;99.90;;;;;;5116415;27;20042;-55
2023/07/15 02:58:35;;;;;;;6.70;5.15;;;22.30;99.90;;;;;;5135685;27;20563;-56
2023/07/15 03:01:00;;;;;;;6.53;5.10;;;22.10;99.90;;;;;;5135412;27;20054;-54
2023/07/15 03:03:26;;;;;;;9.48;4.68;;;22.00;99.90;;;;;;5135363;27;20019;-56
2023/07/15 03:05:54;;;;;;;7.28;5.00;;;22.20;99.90;;;;;;5135423;27;20023;-56
2023/07/15 03:08:20;;;;;;;6.43;4.55;;;22.10;99.90;;;;;;5135092;27;20118;-57
2023/07/15 03:10:46;;;;;;;6.28;4.82;;;22.30;99.90;;;;;;5134855;27;20459;-56
2023/07/15 03:13:12;;;;;;;6.55;4.95;;;22.40;99.90;;;;;;5134988;27;20034;-56
2023/07/15 03:15:39;;;;;;;7.00;5.20;;;22.20;99.90;;;;;;5135298;27;20023;-55
2023/07/15 03:18:05;;;;;;;7.68;4.60;;;22.00;99.90;;;;;;5135371;27;20023;-56
2023/07/15 03:20:31;;;;;;;6.20;4.43;;;22.00;99.90;;;;;;5116099;27;20505;-56
2023/07/15 03:22:57;;;;;;;8.50;4.85;;;22.20;99.90;;;;;;5135499;27;20019;-57
2023/07/15 03:25:23;;;;;;;7.63;5.43;;;22.20;99.90;;;;;;5135097;27;20034;-54
2023/07/15 03:27:50;;;;;;;9.30;4.60;;;22.30;99.90;;;;;;5115988;27;20039;-55
2023/07/15 03:30:16;;;;;;;5.60;4.30;;;22.20;99.90;;;;;;5135208;27;20399;-54
2023/07/15 03:32:43;;;;;;;7.10;4.68;;;22.20;99.90;;;;;;5134888;27;20030;-55
2023/07/15 03:35:09;;;;;;;8.40;5.20;;;22.20;99.90;;;;;;5134755;27;20088;-55
2023/07/15 03:37:36;;;;;;;10.75;4.97;;;22.20;99.90;;;;;;5134847;27;20023;-56
2023/07/15 03:40:07;;;;;;;5.88;4.40;;;22.20;99.90;;;;;;5135076;27;20031;-56
2023/07/15 03:42:33;;;;;;;5.38;4.47;;;22.30;99.90;;;;;;5116275;27;20157;-55
2023/07/15 03:44:58;;;;;;;7.53;4.22;;;22.30;99.90;;;;;;5134632;27;20062;-56
2023/07/15 03:47:24;;;;;;;7.45;4.40;;;22.30;99.90;;;;;;5134648;27;20065;-54
2023/07/15 03:49:50;;;;;;;6.35;4.78;;;22.30;99.90;;;;;;5134660;27;20079;-57
2023/07/15 03:52:16;;;;;;;5.32;4.25;;;22.50;99.90;;;;;;5134357;27;20019;-56
2023/07/15 03:54:43;;;;;;;7.28;4.60;;;22.40;99.90;;;;;;5134185;27;20127;-54
2023/07/15 03:57:09;;;;;;;7.38;5.40;;;22.50;99.90;;;;;;5115610;27;20027;-55
2023/07/15 03:59:36;;;;;;;5.93;4.82;;;22.60;99.90;;;;;;5115360;27;20047;-55
2023/07/15 04:02:02;;;;;;;6.22;4.60;;;22.60;99.90;;;;;;5134581;27;20386;-56
2023/07/15 04:04:28;;;;;;;7.53;4.90;;;22.70;99.90;;;;;;5134263;27;20034;-54
2023/07/15 04:06:54;;;;;;;8.80;5.32;;;22.80;99.90;;;;;;5134288;27;20474;-55
2023/07/15 04:09:21;;;;;;;11.20;5.60;;;22.80;99.90;;;;;;5134262;27;20459;-55
2023/07/15 04:11:47;;;;;;;6.50;5.10;;;22.70;99.90;;;;;;5134487;27;20054;-55
2023/07/15 04:14:13;;;;;;;7.40;5.03;;;22.70;99.90;;;;;;5134182;27;20390;-57
2023/07/15 04:16:39;;;;;;;10.75;5.18;;;22.80;99.90;;;;;;5134441;27;20024;-54
2023/07/15 04:19:05;;;;;;;6.15;5.07;;;22.80;99.90;;;;;;5134435;27;20110;-55
2023/07/15 04:21:31;;;;;;;8.52;5.63;;;22.80;99.90;;;;;;5133316;27;20555;-55
2023/07/15 04:23:57;;;;;;;7.05;5.63;;;22.80;99.90;;;;;;5134095;27;20038;-55
2023/07/15 04:26:24;;;;;;;8.68;5.80;;;23.10;99.90;;;;;;5114888;28;20039;-55
2023/07/15 04:28:51;;;;;;;7.47;5.60;;;23.00;99.90;;;;;;5134573;28;20384;-55
2023/07/15 04:31:17;;;;;;;11.60;6.07;;;23.00;99.90;;;;;;5132225;28;20042;-54
2023/07/15 04:33:47;;;;;;;7.80;6.38;;;23.10;99.90;;;;;;5134042;28;20039;-54
2023/07/15 04:36:13;;;;;;;9.30;6.72;;;23.10;99.90;;;;;;5133992;28;20038;-56
2023/07/15 04:38:39;;;;;;;9.00;6.35;;;23.10;99.90;;;;;;5133935;28;20118;-56
2023/07/15 04:41:06;;;;;;;7.15;5.75;;;23.20;99.90;;;;;;5133975;28;20058;-56
2023/07/15 04:43:32;;;;;;;6.63;5.78;;;23.20;99.90;;;;;;5133746;28;20038;-56
2023/07/15 04:45:58;;;;;;;6.25;5.60;;;23.10;99.90;;;;;;5115073;28;20039;-55
2023/07/15 04:48:25;;;;;;;8.32;6.25;;;;;;;;;;5133636;28;20032;-56
2023/07/15 04:50:50;;;;;;;7.72;6.03;;;23.60;99.90;;;;;;5134079;28;20072;-56
2023/07/15 04:53:16;;;;;;;7.28;5.95;;;23.70;99.90;;;;;;5099778;28;20441;-54
2023/07/15 04:55:43;;;;;;;8.57;6.00;;;23.90;99.90;;;;;;5113499;28;20032;-57
2023/07/15 04:58:09;;;;;;;9.52;6.20;;;24.00;99.90;;;;;;5113322;28;20391;-57
2023/07/15 05:00:36;;;;;;;10.93;6.03;;;24.00;99.90;;;;;;5117136;28;20110;-56
2023/07/15 05:03:03;;;;;;;8.95;6.70;;;;;;;;;;5129332;28;20042;-55
2023/07/15 05:05:29;;;;;;;10.35;6.60;;;;;;;;;;5131773;28;20099;-54
2023/07/15 05:08:00;;;;;;;7.20;6.07;;;;;;;;;;5133934;28;20043;-55
2023/07/15 05:10:26;;;;;;;10.65;7.18;;;;;;;;;;5133710;28;20152;-56
2023/07/15 05:12:52;;;;;;;9.32;7.13;;;;;;;;;;5133405;28;20039;-56
2023/07/15 05:15:18;;;;;;;10.65;6.43;;;;;;;;;;5133643;28;20027;-55
2023/07/15 05:17:44;;;;;;;7.60;6.40;;;;;;;;;;5133514;28;20027;-55
2023/07/15 05:20:13;;;;;;;7.63;6.28;;;;;;;;;;5130727;28;20046;-55
2023/07/15 05:22:39;;;;;;;7.38;5.32;;;;;;;;;;5132946;27;20042;-56
2023/07/15 05:25:05;;;;;;;8.52;6.07;;;25.00;99.90;;;;;;5132359;28;20030;-56
2023/07/15 05:27:31;;;;;;;8.02;6.05;;;25.10;99.90;;;;;;5111615;28;20062;-56
2023/07/15 05:29:57;;;;;;;9.18;6.03;;;25.10;99.90;;;;;;5130978;28;20036;-55
2023/07/15 05:32:23;;;;;;;7.03;5.30;;;;;;;;;;5133591;27;20033;-55
2023/07/15 05:34:49;;;;;;;6.68;5.50;;;;;;;;;;5136559;27;20451;-55
2023/07/15 05:37:15;;;;;;;7.47;5.85;;;25.30;99.90;;;;;;5136388;27;20027;-55
2023/07/15 05:39:41;;;;;;;8.60;5.82;;;;;;;;;;5137214;27;20084;-54
2023/07/15 05:42:08;;;;;;;8.43;5.88;;;;;;;;;;5137373;27;20034;-57
2023/07/15 05:44:33;;;;;;;9.48;5.93;;;25.70;99.90;;;;;;5137512;27;20043;-55
2023/07/15 05:46:59;;;;;;;8.75;5.88;;;25.70;99.90;;;;;;5136767;27;20043;-55
2023/07/15 05:49:25;;;;;;;7.00;5.65;;;25.60;99.90;;;;;;5136879;27;20039;-54
2023/07/15 05:51:51;;;;;;;10.73;6.30;;;25.80;99.90;;;;;;5136599;27;20027;-57
2023/07/15 05:54:17;;;;;;;5.93;4.82;;;;;;;;;;5136716;27;20407;-56
2023/07/15 05:56:43;;;;;;;8.65;5.85;;;26.10;99.90;;;;;;5136627;27;20031;-55
2023/07/15 05:59:09;;;;;;;7.90;5.97;;;;;;;;;;5136634;27;20027;-56
2023/07/15 06:01:35;;;;;;;7.10;5.03;;;;;;;;;;5136622;27;20486;-55
2023/07/15 06:04:01;;;;;;;6.10;5.00;;;;;;;;;;5136493;27;20019;-56
2023/07/15 06:06:27;;;;;;;8.00;5.75;;;;;;;;;;5136371;27;20444;-55
2023/07/15 06:08:53;;;;;;;6.70;5.93;;;26.50;99.90;;;;;;5136403;27;20031;-56
2023/07/15 06:11:19;;;;;;;6.57;5.60;;;;;;;;;;5136134;27;20053;-57
2023/07/15 06:13:45;;;;;;;10.35;5.60;;;26.60;99.90;;;;;;5117423;27;20043;-57
2023/07/15 06:16:11;;;;;;;10.73;6.32;;;;;;;;;;5136444;27;20031;-56
2023/07/15 06:18:37;;;;;;;6.32;5.45;;;27.00;99.90;;;;;;5136544;27;20038;-56
2023/07/15 06:21:03;;;;;;;7.60;5.50;;;;;;;;;;5134407;27;20035;-56
2023/07/15 06:23:29;;;;;;;6.93;5.85;;;;;;;;;;5134288;27;20039;-57
2023/07/15 06:25:56;;;;;;;8.00;5.03;;;;;;;;;;5136672;27;20023;-57
2023/07/15 06:28:22;;;;;;;5.65;4.97;;;27.40;99.90;;;;;;5135499;27;20439;-56
2023/07/15 06:30:50;;;;;;;6.72;4.50;;;27.20;99.90;;;;;;5134768;27;20025;-55
2023/07/15 06:33:16;;;;;;;8.05;5.38;;;27.30;99.90;;;;;;5136180;27;20051;-55
2023/07/15 06:35:42;;;;;;;6.57;4.90;;;27.40;99.90;;;;;;5135781;27;20035;-57
2023/07/15 06:38:07;;;;;;;5.70;4.93;;;27.50;99.90;;;;;;5134627;27;20034;-57
2023/07/15 06:40:33;;;;;;;7.53;4.78;;;27.60;99.90;;;;;;5133979;27;20067;-56
2023/07/15 06:42:59;;;;;;;6.00;5.28;;;27.80;99.90;;;;;;5114820;27;20046;-57
2023/07/15 06:45:33;;;;;;;5.95;4.57;;;27.70;99.90;;;;;;5132601;27;20478;-55
2023/07/15 06:47:59;;;;;;;6.45;4.85;;;27.60;99.90;;;;;;5133415;27;20050;-58
2023/07/15 06:50:25;;;;;;;7.38;5.47;;;27.60;99.90;;;;;;5133772;27;20027;-58
2023/07/15 06:52:51;;;;;;;8.27;5.45;;;27.90;99.90;;;;;;5133588;27;20034;-56
2023/07/15 06:55:17;;;;;;;7.65;5.03;;;27.80;99.90;;;;;;5134802;27;20082;-56
2023/07/15 06:57:42;;;;;;;5.60;4.68;;;28.00;99.90;;;;;;5134609;27;20027;-56
2023/07/15 07:00:09;;;;;;;6.65;4.57;;;;;;;;;;5134465;27;20023;-57
2023/07/15 07:02:34;;;;;;;6.90;5.43;;;28.20;99.90;;;;;;5134425;27;20057;-57
2023/07/15 07:05:00;;;;;;;17.05;5.72;;;;;;;;;;5134516;27;20462;-58
2023/07/15 07:07:26;;;;;;;8.20;4.75;;;28.70;99.90;;;;;;5134267;27;20040;-57
2023/07/15 07:09:52;;;;;;;5.55;4.78;;;28.80;99.90;;;;;;5133411;27;20023;-55
2023/07/15 07:12:18;;;;;;;6.97;5.30;;;28.70;99.90;;;;;;5133931;27;20034;-57
2023/07/15 07:14:44;;;;;;;6.80;4.43;;;;;;;;;;5133857;27;20049;-57
2023/07/15 07:17:10;;;;;;;4.80;3.75;;;;;;;;;;5133038;27;20045;-55
2023/07/15 07:19:36;;;;;;;6.00;4.43;;;;;;;;;;5134053;27;20062;-57
2023/07/15 07:22:03;;;;;;;6.25;4.53;;;;;;;;;;5134095;27;20363;-57
2023/07/15 07:24:29;;;;;;;4.40;3.85;;;;;;;;;;5133914;27;20451;-57
2023/07/15 07:26:55;;;;;;;7.88;4.28;;;;;;;;;;5133835;27;20035;-55
2023/07/15 07:29:22;;;;;;;5.22;4.10;;;29.00;99.90;;;;;;5133755;27;20494;-57
2023/07/15 07:31:48;;;;;;;7.10;4.47;;;;;;;;;;5134062;27;20035;-56
2023/07/15 07:34:14;;;;;;;5.97;4.32;;;29.50;99.90;;;;;;5127642;27;20414;-55
2023/07/15 07:36:40;;;;;;;6.43;4.68;;;;;;;;;;5120720;27;20024;-55
2023/07/15 07:39:05;;;;;;;5.15;3.92;;;29.80;99.90;;;;;;5124198;27;20049;-56
2023/07/15 07:41:31;;;;;;;15.68;3.50;;;30.00;99.90;;;;;;5122695;27;20031;-56
2023/07/15 07:43:57;;;;;;;4.88;4.15;;;29.50;99.90;;;;;;5104905;27;20427;-56
2023/07/15 07:46:23;;;;;;;4.47;4.05;;;29.90;99.90;;;;;;5113407;27;20173;-55
2023/07/15 07:48:49;;;;;;;5.03;4.50;;;;;;;;;;5114083;27;20070;-58
2023/07/15 07:51:15;;;;;;;5.40;4.30;;;;;;;;;;5112516;28;20042;-57
2023/07/15 07:53:41;;;;;;;5.38;3.67;;;;;;;;;;5113001;28;20580;-57
2023/07/15 07:56:11;;;;;;;5.40;3.30;;;;;;;;;;5128892;27;20046;-57
2023/07/15 07:58:37;;;;;;;5.97;3.75;;;;;;;;;;5132669;27;20023;-57
2023/07/15 08:01:03;;;;;;;5.13;3.90;;;;;;;;;;5131106;27;20031;-57
2023/07/15 08:03:30;;;;;;;4.75;3.47;;;;;;;;;;5132899;27;20034;-58
2023/07/15 08:05:56;;;;;;;5.65;3.95;;;;;;;;;;5127459;27;20023;-58
2023/07/15 08:08:22;;;;;;;4.35;3.55;;;;;;;;;;5114672;27;20799;-58
2023/07/15 08:10:48;;;;;;;6.65;3.38;;;;;;;;;;5127277;27;20031;-57
2023/07/15 08:13:14;;;;;;;4.20;3.03;;;;;;;;;;5132706;27;20399;-58
2023/07/15 08:15:40;;;;;;;6.53;3.90;;;;;;;;;;5133138;27;20035;-56
2023/07/15 08:18:06;;;;;;;4.45;4.00;;;;;;;;;;5133023;27;20057;-56
2023/07/15 08:20:33;;;;;;;4.75;3.83;;;;;;;;;;5132981;27;20070;-57
2023/07/15 08:23:00;;;;;;;6.13;3.45;;;;;;;;;;5133174;27;20035;-58
2023/07/15 08:25:26;;;;;;;5.93;3.28;;;;;;;;;;5133083;27;20034;-58
2023/07/15 08:27:53;;;;;;;4.32;3.25;;;;;;;;;;5132969;28;20038;-57
2023/07/15 08:30:20;;;;;;;4.93;3.38;;;;;;;;;;5133057;28;20028;-58
2023/07/15 08:32:46;;;;;;;6.72;3.72;;;;;;;;;;5133127;28;20019;-57
2023/07/15 08:35:12;;;;;;;4.65;3.60;;;31.60;99.90;;;;;;5132884;28;20123;-57
2023/07/15 08:37:40;;;;;;;5.80;3.00;;;31.60;99.90;;;;;;5133054;28;20485;-58
2023/07/15 08:40:08;;;;;;;3.65;2.80;;;31.80;99.90;;;;;;5132936;28;20062;-57
2023/07/15 08:42:35;;;;;;;5.32;3.78;;;;;;;;;;5109792;28;20048;-57
2023/07/15 08:45:02;;;;;;;5.70;3.78;;;;;;;;;;5109926;28;20062;-57
2023/07/15 08:47:28;;;;;;;3.83;3.08;;;32.20;99.90;;;;;;5110802;28;20070;-55
2023/07/15 08:49:55;;;;;;;3.17;2.88;;;31.90;99.90;;;;;;5111118;28;20110;-56
2023/07/15 08:52:22;;;;;;;5.38;3.67;;;31.80;99.90;;;;;;5111219;28;20122;-56
2023/07/15 08:54:50;;;;;;;4.32;3.30;;;32.20;99.90;;;;;;5111204;28;20051;-56
2023/07/15 08:57:23;;;;;;;3.22;2.80;;;32.30;99.90;;;;;;5111188;28;20531;-55
2023/07/15 08:59:54;;;;;;;3.95;3.13;;;32.00;99.90;;;;;;5111158;28;20042;-58
2023/07/15 09:02:20;;;;;;;4.70;2.97;;;32.00;99.90;;;;;;5111154;28;20055;-57
2023/07/15 09:04:46;;;;;;;5.20;3.97;;;32.10;99.90;;;;;;5111011;28;20489;-57
2023/07/15 09:07:11;;;;;;;6.15;3.42;;;32.30;99.90;;;;;;5076914;28;20457;-58
2023/07/15 09:09:38;;;;;;;4.43;2.90;;;;;;;;;;5115162;28;20040;-58
2023/07/15 09:12:09;;;;;;;3.10;2.80;;;32.20;99.90;;;;;;5114941;28;20032;-58
2023/07/15 09:14:42;;;;;;;5.35;3.42;;;32.30;99.90;;;;;;5114790;28;20039;-58
2023/07/15 09:17:08;;;;;;;4.00;2.72;;;32.60;99.90;;;;;;5114909;28;20123;-58
2023/07/15 09:19:35;;;;;;;3.72;2.88;;;32.50;99.90;;;;;;5122471;27;20122;-58
2023/07/15 09:22:06;;;;;;;4.55;2.88;;;32.70;99.90;;;;;;5135743;27;20375;-58
2023/07/15 09:24:33;;;;;;;3.58;2.90;;;33.20;99.90;;;;;;5118507;27;20122;-58
2023/07/15 09:27:02;;;;;;;5.72;3.38;;;32.90;99.90;;;;;;5137331;27;20058;-58
2023/07/15 09:29:29;;;;;;;4.13;3.25;;;33.30;99.90;;;;;;5137435;27;20428;-58
2023/07/15 09:31:55;;;;;;;4.20;2.80;;;33.70;99.90;;;;;;5137268;27;20041;-59
2023/07/15 09:34:25;;;;;;;4.15;3.10;;;33.50;99.90;;;;;;5135868;27;20379;-58
2023/07/15 09:36:52;;;;;;;11.45;3.28;;;33.50;99.90;;;;;;5137429;27;20772;-57
2023/07/15 09:39:22;;;;;;;4.68;2.90;;;33.40;99.90;;;;;;5137004;27;20478;-58
2023/07/15 09:42:07;;;;;;;5.63;2.90;;;33.50;99.90;;;;;;5137062;27;20114;-58
2023/07/15 09:44:38;;;;;;;4.38;3.00;;;33.80;99.90;;;;;;5137069;27;20030;-58
2023/07/15 09:47:05;;;;;;;4.88;3.38;;;34.00;99.90;;;;;;5137096;27;20067;-59
2023/07/15 09:49:32;;;;;;;4.85;2.92;;;33.90;99.90;;;;;;5136859;27;20035;-58
2023/07/15 09:51:59;;;;;;;6.40;3.10;;;;;;;;;;5137064;27;20027;-58
2023/07/15 09:54:31;;;;;;;4.40;3.28;;;34.10;99.90;;;;;;5127988;27;20039;-58
2023/07/15 09:57:04;;;;;;;5.10;2.70;;;33.90;99.90;;;;;;5133026;27;20479;-58
2023/07/15 09:59:49;;;;;;;3.92;2.90;;;;;;;;;;5135258;27;20085;-58
2023/07/15 10:02:26;;;;;;;4.40;3.50;;;34.50;99.90;;;;;;5135578;27;20039;-58
2023/07/15 10:04:54;;;;;;;4.07;3.20;;;34.70;99.90;;;;;;5135526;27;20055;-58
2023/07/15 10:07:20;;;;;;;4.93;2.63;;;34.90;99.90;;;;;;5135456;27;20398;-58
2023/07/15 10:09:46;;;;;;;3.17;2.80;;;34.60;99.90;;;;;;5135218;27;20083;-58
2023/07/15 10:12:12;;;;;;;3.78;3.03;;;34.80;99.90;;;;;;5135177;27;20415;-58
2023/07/15 10:14:38;;;;;;;3.22;2.72;;;35.10;99.90;;;;;;5135296;27;20370;-58
2023/07/15 10:17:12;;;;;;;4.75;2.90;;;34.90;99.90;;;;;;5135375;27;20155;-59
2023/07/15 10:19:47;;;;;;;4.78;3.15;;;35.30;99.90;;;;;;5134015;27;20050;-59
2023/07/15 10:22:16;;;;;;;3.63;2.97;;;35.10;99.90;;;;;;5135396;27;20475;-58
2023/07/15 10:24:44;;;;;;;3.47;2.63;;;34.20;99.40;;;;;;5135994;27;20482;-58
2023/07/15 10:27:11;;;;;;;6.88;3.05;;;35.10;99.90;;;;;;5136530;27;20041;-59
2023/07/15 10:29:39;;;;;;;6.22;3.70;;;35.40;99.90;;;;;;5135335;27;20038;-58
2023/07/15 10:32:09;;;;;;;8.57;3.50;;;35.80;99.60;;;;;;5135827;27;20038;-58
2023/07/15 10:34:40;;;;;;;5.38;3.70;;;35.70;99.20;;;;;;5134392;27;20126;-58
2023/07/15 10:37:09;;;;;;;3.65;3.25;;;35.40;99.20;;;;;;5136114;27;20027;-58
2023/07/15 10:39:35;;;;;;;4.22;3.60;;;35.00;99.10;;;;;;5136015;27;20037;-58
2023/07/15 10:42:11;;;;;;;4.93;3.65;;;35.60;99.90;;;;;;5126508;27;20061;-58
2023/07/15 10:44:45;;;;;;;4.20;3.33;;;35.90;99.10;;;;;;5098729;28;20080;-59
2023/07/15 10:47:15;;;;;;;4.93;3.20;;;35.80;98.70;;;;;;5105403;28;20138;-58
2023/07/15 10:49:44;;;;;;;5.32;3.35;;;35.90;98.70;;;;;;5105182;28;20123;-58
2023/07/15 10:52:11;;;;;;;5.35;3.50;;;35.90;98.30;;;;;;5105221;28;20028;-58
2023/07/15 10:54:39;;;;;;;5.80;3.70;;;35.70;98.10;;;;;;5108712;28;20107;-58
2023/07/15 10:57:09;;;;;;;4.50;3.78;;;35.80;98.90;;;;;;5100517;28;20089;-58
2023/07/15 10:59:41;;;;;;;5.83;3.83;;;36.20;97.90;;;;;;5098510;28;20074;-59
2023/07/15 11:02:07;;;;;;;4.43;3.63;;;36.00;97.90;;;;;;5099289;28;20035;-59
2023/07/15 11:04:34;;;;;;;5.13;3.22;;;;;;;;;;5102976;28;20490;-59
2023/07/15 11:07:02;;;;;;;4.80;3.97;;;35.90;98.60;;;;;;5102457;28;20510;-59
2023/07/15 11:09:29;;;;;;;4.57;4.10;;;36.30;97.70;;;;;;5102330;28;20101;-58
2023/07/15 11:11:55;;;;;;;6.18;3.67;;;;;;;;;;5100133;28;20541;-58
2023/07/15 11:14:25;;;;;;;4.57;3.30;;;;;;;;;;5104182;28;20519;-58
2023/07/15 11:16:52;;;;;;;5.70;3.83;;;;;;;;;;5126621;27;20080;-58
2023/07/15 11:19:18;;;;;;;4.40;3.60;;;35.80;96.70;;;;;;5129207;27;20034;-59
2023/07/15 11:21:44;;;;;;;4.50;3.40;;;36.30;97.00;;;;;;5120778;27;20046;-56
2023/07/15 11:24:16;;;;;;;4.28;3.72;;;36.40;96.70;;;;;;5123631;27;20041;-56
2023/07/15 11:26:43;;;;;;;6.13;3.47;;;36.90;96.50;;;;;;5129441;27;20043;-59
2023/07/15 11:29:23;;;;;;;6.10;3.50;;;;;;;;;;5126237;27;20064;-58
2023/07/15 11:31:51;;;;;;;4.25;3.53;;;37.30;98.10;;;;;;5122292;27;20039;-59
2023/07/15 11:34:20;;;;;;;5.68;3.80;;;;;;;;;;5123474;27;20448;-59
2023/07/15 11:36:47;;;;;;;5.10;3.42;;;;;;;;;;5124541;27;20015;-59
2023/07/15 11:39:14;;;;;;;8.07;3.53;;;;;;;;;;5120545;27;20166;-58
2023/07/15 11:41:40;;;;;;;7.90;4.65;;;;;;;;;;5132486;27;20023;-59
2023/07/15 11:44:07;;;;;;;4.25;3.67;;;;;;;;;;5124590;27;20110;-57
2023/07/15 11:46:34;;;;;;;4.82;3.40;;;;;;;;;;5128027;27;20188;-59
2023/07/15 11:49:00;;;;;;;6.63;4.82;;;38.40;94.50;;;;;;5100941;28;20040;-58
2023/07/15 11:51:26;;;;;;;5.80;4.03;;;38.40;95.10;;;;;;5122153;27;20038;-58
2023/07/15 11:53:54;;;;;;;4.57;3.80;;;38.00;94.60;;;;;;5120720;27;20490;-58
2023/07/15 11:56:42;;;;;;;8.52;3.90;;;38.60;95.10;;;;;;5121212;27;20055;-58
2023/07/15 11:59:10;;;;;;;8.02;4.07;;;;;;;;;;5123423;27;20102;-60
2023/07/15 12:01:39;;;;;;;6.70;4.05;;;38.90;94.20;;;;;;5123587;27;20038;-58
2023/07/15 12:04:16;;;;;;;4.53;4.07;;;38.60;94.20;;;;;;5120906;27;20483;-58
2023/07/15 12:06:52;;;;;;;5.82;3.97;;;38.60;94.50;;;;;;5122924;27;20036;-58
2023/07/15 12:09:20;;;;;;;4.00;3.60;;;38.60;94.00;;;;;;5117208;27;20031;-58
2023/07/15 12:11:46;;;;;;;6.25;4.07;;;38.40;93.70;;;;;;5127714;27;20034;-58
2023/07/15 12:14:13;;;;;;;4.38;3.97;;;38.50;93.40;;;;;;5121457;27;20080;-58
2023/07/15 12:16:40;;;;;;;5.97;4.07;;;38.50;93.90;;;;;;5123610;27;20035;-58
2023/07/15 12:19:09;;;;;;;5.40;3.97;;;38.20;94.00;;;;;;5118007;27;20111;-58
2023/07/15 12:21:35;;;;;;;6.38;4.22;;;38.30;93.70;;;;;;5122526;28;20031;-58
2023/07/15 12:24:00;;;;;;;5.25;4.10;;;38.40;93.60;;;;;;5125733;27;20038;-58
2023/07/15 12:26:28;;;;;;;5.88;4.65;;;38.40;93.40;;;;;;5124354;27;20027;-58
2023/07/15 12:28:53;;;;;;;7.28;4.28;;;38.40;93.50;;;;;;5117573;28;20032;-58
2023/07/15 12:31:19;;;;;;;5.57;4.38;;;38.50;94.30;;;;;;5103268;28;20111;-58
2023/07/15 12:33:45;;;;;;;5.85;4.38;;;38.90;94.10;;;;;;5124217;28;20034;-58
2023/07/15 12:36:13;;;;;;;4.90;4.13;;;39.00;98.70;;;;;;5120420;28;20032;-59
2023/07/15 12:38:39;;;;;;;7.45;4.65;;;;;;;;;;5125707;28;20035;-58
2023/07/15 12:41:06;;;;;;;5.00;4.50;;;38.30;92.50;;;;;;5125072;28;20040;-60
2023/07/15 12:43:33;;;;;;;4.38;3.97;;;38.40;92.80;;;;;;5125027;27;20030;-59
2023/07/15 12:46:00;;;;;;;4.90;4.20;;;38.60;93.00;;;;;;5131716;27;20034;-59
2023/07/15 12:48:26;;;;;;;5.80;5.05;;;39.10;93.50;;;;;;5130851;27;20070;-59
2023/07/15 12:50:52;;;;;;;4.80;4.28;;;38.60;92.70;;;;;;5126469;27;20439;-58
2023/07/15 12:53:22;;;;;;;4.78;4.28;;;38.60;92.50;;;;;;5069840;27;20407;-59
2023/07/15 12:55:48;;;;;;;5.85;4.82;;;38.80;92.60;;;;;;5134452;27;20114;-58
2023/07/15 12:58:14;;;;;;;6.85;4.68;;;39.00;93.10;;;;;;5128504;27;20070;-58
2023/07/15 13:00:40;;;;;;;11.52;7.82;;;38.20;99.90;;;;;;5126487;27;20066;-59
2023/07/15 13:03:12;;;;;;;5.28;4.55;;;37.90;92.10;;;;;;5122247;27;20037;-59
2023/07/15 13:05:38;;;;;;;5.55;4.30;;;38.40;92.40;;;;;;5129535;27;20031;-58
2023/07/15 13:08:04;;;;;;;5.20;4.10;;;38.20;92.10;;;;;;5130436;27;20046;-59
2023/07/15 13:10:30;;;;;;;5.97;4.88;;;38.70;92.50;;;;;;5135718;27;20084;-58